Time;durP1;ratioP1;P1;durP2;ratioP2;P2;SDS_P1;SDS_P2;PMS_P1;PMS_P2;Temp;Humidity;BMP_temperature;BMP_pressure;BME280_temperature;BME280_humidity;BME280_pressure;Samples;Min_cycle;Max_cycle;Signal;HPM_P1;HPM_P2
2021/06/20 00:01:45;;;;;;;1999.90;999.90;;;24.70;99.90;;;;;;5079068;28;20409;-81
2021/06/20 00:04:11;;;;;;;1999.90;999.90;;;24.60;99.90;;;;;;5081269;28;20423;-80
2021/06/20 00:06:38;;;;;;;1999.90;999.90;;;24.60;99.90;;;;;;5081153;28;20590;-80
2021/06/20 00:09:11;;;;;;;1999.90;999.90;;;24.60;99.90;;;;;;5080642;28;20205;-80
2021/06/20 00:11:40;;;;;;;1999.90;999.90;;;24.50;99.90;;;;;;5079153;28;20504;-81
2021/06/20 00:14:07;;;;;;;1999.90;999.90;;;24.50;99.90;;;;;;5080852;28;20413;-81
2021/06/20 00:16:33;;;;;;;1999.90;999.90;;;24.30;1.00;;;;;;5079453;28;20778;-81
2021/06/20 00:19:00;;;;;;;1999.90;999.90;;;24.10;99.90;;;;;;5079943;28;20434;-81
2021/06/20 00:21:26;;;;;;;1999.90;999.90;;;23.90;1.00;;;;;;5078488;28;20423;-81
2021/06/20 00:23:53;;;;;;;1999.90;999.90;;;23.70;1.00;;;;;;5080203;28;20460;-81
2021/06/20 00:26:18;;;;;;;1999.90;999.90;;;23.70;99.90;;;;;;5080305;28;20447;-81
2021/06/20 00:28:45;;;;;;;1999.90;999.90;;;23.60;1.00;;;;;;5079929;28;20424;-81
2021/06/20 00:31:11;;;;;;;1999.90;999.90;;;23.40;1.00;;;;;;5080977;28;20255;-81
2021/06/20 00:33:39;;;;;;;1999.90;999.90;;;23.40;1.00;;;;;;5079983;28;20409;-81
2021/06/20 00:36:05;;;;;;;1999.90;999.90;;;23.50;99.90;;;;;;5079882;28;20410;-81
2021/06/20 00:38:31;;;;;;;1999.90;999.90;;;23.60;99.90;;;;;;5078671;28;20501;-81
2021/06/20 00:40:57;;;;;;;1999.90;999.90;;;23.60;1.00;;;;;;5079350;28;20449;-81
2021/06/20 00:43:23;;;;;;;1999.90;999.90;;;23.50;99.90;;;;;;5079739;28;20257;-81
2021/06/20 00:45:49;;;;;;;1999.90;999.90;;;23.40;1.00;;;;;;5080242;28;20454;-81
2021/06/20 00:48:14;;;;;;;1999.90;999.90;;;23.40;1.00;;;;;;5079985;28;20196;-81
2021/06/20 00:50:40;;;;;;;1999.90;999.90;;;23.20;1.00;;;;;;5078579;28;20215;-81
2021/06/20 00:53:06;;;;;;;1999.90;999.90;;;23.20;1.00;;;;;;5079875;28;20168;-81
2021/06/20 00:55:34;;;;;;;1999.90;999.90;;;23.20;1.00;;;;;;5079941;28;20408;-81
2021/06/20 00:58:04;;;;;;;1999.90;999.90;;;23.10;1.00;;;;;;5079998;28;20170;-81
2021/06/20 01:00:31;;;;;;;1999.90;999.90;;;23.00;1.00;;;;;;5080376;28;20498;-81
2021/06/20 01:02:57;;;;;;;1999.90;999.90;;;22.90;1.00;;;;;;5079159;28;20412;-81
2021/06/20 01:05:23;;;;;;;1999.90;999.90;;;22.80;1.00;;;;;;5079036;22;20483;-80
2021/06/20 01:07:54;;;;;;;1999.90;999.90;;;22.70;99.90;;;;;;5060045;28;20158;-80
2021/06/20 01:10:30;;;;;;;1999.90;999.90;;;22.70;99.90;;;;;;5042281;28;20454;-80
2021/06/20 01:12:57;;;;;;;1999.90;999.90;;;22.80;99.90;;;;;;5060902;28;20382;-80
2021/06/20 01:15:23;;;;;;;1999.90;999.90;;;22.90;99.90;;;;;;5061310;28;20404;-80
2021/06/20 01:17:49;;;;;;;1999.90;999.90;;;22.90;99.90;;;;;;5060336;28;20403;-80
2021/06/20 01:20:17;;;;;;;1999.90;999.90;;;22.90;99.90;;;;;;5060461;28;20603;-80
2021/06/20 01:22:45;;;;;;;1999.90;999.90;;;22.90;99.90;;;;;;5059953;28;20414;-80
2021/06/20 01:25:14;;;;;;;1999.90;999.90;;;22.90;99.90;;;;;;5060317;28;20815;-80
2021/06/20 01:27:44;;;;;;;1999.90;999.90;;;22.90;99.90;;;;;;5059827;28;20404;-80
2021/06/20 01:30:31;;;;;;;1999.90;999.90;;;22.90;99.90;;;;;;5059900;28;20768;-80
2021/06/20 01:32:59;;;;;;;1999.90;999.90;;;23.00;99.90;;;;;;5059878;28;20414;-80
2021/06/20 01:35:26;;;;;;;1999.90;999.90;;;23.10;99.90;;;;;;5060729;28;20471;-80
2021/06/20 01:37:53;;;;;;;1999.90;999.90;;;23.20;99.90;;;;;;5059565;28;20403;-80
2021/06/20 01:40:20;;;;;;;1999.90;999.90;;;23.10;99.90;;;;;;5059540;28;20426;-80
2021/06/20 01:42:47;;;;;;;1999.90;999.90;;;23.20;99.90;;;;;;5060235;28;20400;-80
2021/06/20 01:45:15;;;;;;;1999.90;999.90;;;23.10;99.90;;;;;;5059721;28;20493;-80
2021/06/20 01:47:41;;;;;;;1999.90;999.90;;;23.10;99.90;;;;;;5059905;28;20403;-80
2021/06/20 01:50:11;;;;;;;1999.90;999.90;;;23.10;99.90;;;;;;5059979;28;20430;-80
2021/06/20 01:52:37;;;;;;;1999.90;999.90;;;23.00;99.90;;;;;;5059671;28;20156;-80
2021/06/20 01:55:04;;;;;;;1999.90;999.90;;;23.00;99.90;;;;;;5060062;28;20403;-80
2021/06/20 01:57:32;;;;;;;1999.90;999.90;;;22.90;99.90;;;;;;5060067;28;20411;-80
2021/06/20 02:00:00;;;;;;;1999.90;999.90;;;22.90;99.90;;;;;;5060387;28;20430;-80
2021/06/20 02:02:28;;;;;;;1999.90;999.90;;;22.90;99.90;;;;;;5060926;28;20482;-80
2021/06/20 02:04:55;;;;;;;1999.90;999.90;;;22.80;99.90;;;;;;5059522;28;20461;-80
2021/06/20 02:07:26;;;;;;;1999.90;999.90;;;22.60;99.90;;;;;;5059686;28;20427;-80
2021/06/20 02:09:52;;;;;;;1999.90;999.90;;;22.60;99.90;;;;;;5059792;28;20419;-80
2021/06/20 02:12:23;;;;;;;1999.90;999.90;;;22.70;99.90;;;;;;5059768;28;20411;-80
2021/06/20 02:14:50;;;;;;;1999.90;999.90;;;22.60;99.90;;;;;;5059329;28;20490;-79
2021/06/20 02:17:19;;;;;;;1999.90;999.90;;;22.60;99.90;;;;;;5060188;28;20402;-80
2021/06/20 02:19:45;;;;;;;1999.90;999.90;;;22.60;99.90;;;;;;5059725;28;20504;-79
2021/06/20 02:22:10;;;;;;;1999.90;999.90;;;22.70;99.90;;;;;;5060359;28;20399;-80
2021/06/20 02:24:36;;;;;;;1999.90;999.90;;;22.70;99.90;;;;;;5059035;28;20175;-80
2021/06/20 02:27:02;;;;;;;1999.90;999.90;;;22.80;99.90;;;;;;5058713;28;20175;-80
2021/06/20 02:29:27;;;;;;;1999.90;999.90;;;22.90;99.90;;;;;;5058396;28;20306;-79
2021/06/20 02:31:53;;;;;;;1999.90;999.90;;;22.90;99.90;;;;;;5041075;28;20177;-80
2021/06/20 02:34:19;;;;;;;1999.90;999.90;;;23.00;99.90;;;;;;5058958;28;20184;-80
2021/06/20 02:36:46;;;;;;;1999.90;999.90;;;23.00;99.90;;;;;;5059543;28;20207;-80
2021/06/20 02:39:12;;;;;;;1999.90;999.90;;;23.00;99.90;;;;;;5059282;28;20184;-80
2021/06/20 02:41:38;;;;;;;1999.90;999.90;;;23.10;99.90;;;;;;5041119;28;20411;-80
2021/06/20 02:44:03;;;;;;;1999.90;999.90;;;23.10;99.90;;;;;;5058464;28;20562;-80
2021/06/20 02:46:29;;;;;;;1999.90;999.90;;;23.10;99.90;;;;;;5058354;28;20200;-80
2021/06/20 02:48:55;;;;;;;1999.90;999.90;;;23.10;99.90;;;;;;5057813;28;20205;-79
2021/06/20 02:51:20;;;;;;;1999.90;999.90;;;23.00;99.90;;;;;;5058463;28;20187;-79
2021/06/20 02:53:46;;;;;;;1999.90;999.90;;;23.00;99.90;;;;;;5058513;28;20156;-80
2021/06/20 02:56:12;;;;;;;1999.90;999.90;;;23.00;99.90;;;;;;5059217;28;20165;-80
2021/06/20 02:58:37;;;;;;;1999.90;999.90;;;23.00;99.90;;;;;;5057719;28;20180;-80
2021/06/20 03:01:03;;;;;;;1999.90;999.90;;;23.00;99.90;;;;;;5057754;28;20668;-80
2021/06/20 03:03:29;;;;;;;1999.90;999.90;;;23.00;99.90;;;;;;5059200;28;20254;-79
2021/06/20 03:05:54;;;;;;;1999.90;999.90;;;23.00;99.90;;;;;;5039609;28;20203;-79
2021/06/20 03:08:20;;;;;;;1999.90;999.90;;;23.10;99.90;;;;;;5058206;28;20172;-80
2021/06/20 03:10:45;;;;;;;1999.90;999.90;;;23.10;99.90;;;;;;5057634;28;20192;-80
2021/06/20 03:13:11;;;;;;;1999.90;999.90;;;23.20;99.90;;;;;;5058110;28;20219;-79
2021/06/20 03:15:39;;;;;;;1999.90;999.90;;;23.20;99.90;;;;;;5039573;28;20176;-80
2021/06/20 03:18:05;;;;;;;1999.90;999.90;;;23.20;99.90;;;;;;5058858;28;20406;-79
2021/06/20 03:20:31;;;;;;;1999.90;999.90;;;23.20;99.90;;;;;;5057842;28;20422;-79
2021/06/20 03:22:57;;;;;;;1999.90;999.90;;;23.10;99.90;;;;;;5040111;28;20415;-80
2021/06/20 03:25:23;;;;;;;1999.90;999.90;;;23.10;20.60;;;;;;5057611;28;20823;-80
2021/06/20 03:27:48;;;;;;;1999.90;999.90;;;23.20;26.80;;;;;;5057288;28;20166;-79
2021/06/20 03:30:15;;;;;;;1999.90;999.90;;;23.10;49.90;;;;;;5057712;28;20184;-80
2021/06/20 03:32:40;;;;;;;1999.90;999.90;;;23.10;54.40;;;;;;5056839;28;20521;-80
2021/06/20 03:35:06;;;;;;;1999.90;999.90;;;23.10;22.20;;;;;;5057679;28;20403;-80
2021/06/20 03:37:32;;;;;;;1999.90;999.90;;;23.10;32.10;;;;;;5057246;28;20169;-80
2021/06/20 03:40:01;;;;;;;1999.90;999.90;;;23.10;18.80;;;;;;5057090;28;20461;-80
2021/06/20 03:42:26;;;;;;;1999.90;999.90;;;23.20;1.00;;;;;;5057673;28;20252;-79
2021/06/20 03:44:52;;;;;;;1999.90;999.90;;;23.20;29.30;;;;;;5056862;28;20510;-79
2021/06/20 03:47:18;;;;;;;1999.90;999.90;;;23.20;17.80;;;;;;5057179;28;20168;-80
2021/06/20 03:49:43;;;;;;;1999.90;999.90;;;23.20;18.70;;;;;;5056956;28;20181;-80
2021/06/20 03:52:09;;;;;;;1999.90;999.90;;;23.20;29.90;;;;;;5039235;28;20164;-80
2021/06/20 03:54:35;;;;;;;1999.90;999.90;;;23.10;44.40;;;;;;5056847;28;20165;-80
2021/06/20 03:57:00;;;;;;;1999.90;999.90;;;23.10;47.50;;;;;;5057172;28;20169;-80
2021/06/20 03:59:26;;;;;;;1999.90;999.90;;;23.10;48.00;;;;;;5056739;28;20506;-80
2021/06/20 04:01:53;;;;;;;1999.90;999.90;;;23.10;71.10;;;;;;5057017;28;20166;-80
2021/06/20 04:06:57;;;;;;;1999.90;999.90;;;23.10;3.10;;;;;;5136855;27;20521;-80
2021/06/20 04:09:23;;;;;;;1999.90;999.90;;;23.00;93.80;;;;;;5132309;28;20787;-80
2021/06/20 04:11:49;;;;;;;1999.90;999.90;;;23.00;55.10;;;;;;5116683;28;20224;-79
2021/06/20 04:14:15;;;;;;;1999.90;999.90;;;23.00;44.60;;;;;;5116553;28;20158;-80
2021/06/20 04:16:41;;;;;;;1999.90;999.90;;;23.00;41.90;;;;;;5116191;28;20167;-80
2021/06/20 04:19:07;;;;;;;1999.90;999.90;;;23.10;44.40;;;;;;5116482;28;20948;-80
2021/06/20 04:21:32;;;;;;;1999.90;999.90;;;23.10;13.60;;;;;;5115672;28;20171;-80
2021/06/20 04:23:58;;;;;;;1999.90;999.90;;;23.10;99.90;;;;;;5115771;28;20177;-79
2021/06/20 04:26:24;;;;;;;1999.90;999.90;;;23.10;80.80;;;;;;5116382;28;20191;-79
2021/06/20 04:28:49;;;;;;;1999.90;999.90;;;23.10;99.90;;;;;;5114550;28;20186;-80
2021/06/20 04:31:16;;;;;;;1999.90;999.90;;;23.20;99.90;;;;;;5116488;28;20480;-79
2021/06/20 04:33:42;;;;;;;1999.90;999.90;;;23.30;77.80;;;;;;5116303;28;20179;-79
2021/06/20 04:36:08;;;;;;;1999.90;999.90;;;23.30;99.90;;;;;;5115612;28;20404;-79
2021/06/20 04:38:33;;;;;;;1999.90;999.90;;;23.50;99.90;;;;;;5115993;28;20186;-79
2021/06/20 04:41:05;;;;;;;1999.90;999.90;;;23.70;1.00;;;;;;5116125;28;20572;-80
2021/06/20 04:46:22;;;;;;;1999.90;999.90;;;24.00;1.00;;;;;;5196348;22;20488;-80
2021/06/20 04:48:50;;;;;;;1999.90;999.90;;;23.90;1.00;;;;;;5135809;28;20432;-80
2021/06/20 04:51:16;;;;;;;1999.90;999.90;;;23.80;1.00;;;;;;5117883;28;20405;-79
2021/06/20 04:53:41;;;;;;;1999.90;999.90;;;23.70;1.00;;;;;;5136202;28;20404;-79
2021/06/20 04:56:07;;;;;;;1999.90;999.90;;;23.70;1.00;;;;;;5137628;28;20170;-78
2021/06/20 04:58:33;;;;;;;1999.90;999.90;;;23.70;1.00;;;;;;5137725;28;20216;-78
2021/06/20 05:00:59;;;;;;;1999.90;999.90;;;23.80;1.00;;;;;;5120554;28;20166;-79
2021/06/20 05:03:24;;;;;;;1999.90;999.90;;;23.70;1.00;;;;;;5136229;28;20977;-80
2021/06/20 05:05:53;;;;;;;1999.90;999.90;;;23.90;1.00;;;;;;5117833;28;20191;-80
2021/06/20 05:08:18;;;;;;;1999.90;999.90;;;24.10;1.00;;;;;;5136425;28;20630;-80
2021/06/20 05:10:44;;;;;;;1999.90;999.90;;;24.20;1.00;;;;;;5136071;28;20396;-80
2021/06/20 05:13:10;;;;;;;1999.90;999.90;;;24.10;1.00;;;;;;5117630;28;20175;-80
2021/06/20 05:15:35;;;;;;;1999.90;999.90;;;24.10;1.00;;;;;;5135907;28;20176;-80
2021/06/20 05:18:01;;;;;;;1999.90;999.90;;;24.20;1.00;;;;;;5124028;28;20612;-80
2021/06/20 05:20:27;;;;;;;1999.90;999.90;;;24.20;1.00;;;;;;5122555;28;20734;-79
2021/06/20 05:22:52;;;;;;;1999.90;999.90;;;24.30;1.00;;;;;;5122581;28;20216;-80
2021/06/20 05:25:18;;;;;;;1999.90;999.90;;;24.30;1.00;;;;;;5122386;28;20191;-80
2021/06/20 05:27:44;;;;;;;1999.90;999.90;;;24.30;1.00;;;;;;5122638;28;20160;-80
2021/06/20 05:30:10;;;;;;;1999.90;999.90;;;24.30;1.00;;;;;;5122479;28;20175;-80
2021/06/20 05:32:36;;;;;;;1999.90;999.90;;;24.10;1.00;;;;;;5103890;28;20644;-80
2021/06/20 05:35:01;;;;;;;1999.90;999.90;;;24.10;1.00;;;;;;5122166;28;20408;-80
2021/06/20 05:37:27;;;;;;;1999.90;999.90;;;24.00;1.00;;;;;;5104045;28;20175;-80
2021/06/20 05:39:53;;;;;;;1999.90;999.90;;;24.00;1.00;;;;;;5121576;28;20269;-80
2021/06/20 05:42:18;;;;;;;1999.90;999.90;;;23.70;1.00;;;;;;5102273;28;20167;-80
2021/06/20 05:44:44;;;;;;;1999.90;999.90;;;23.60;1.00;;;;;;5120981;28;20534;-79
2021/06/20 05:47:10;;;;;;;1999.90;999.90;;;23.50;1.00;;;;;;5122186;28;20646;-80
2021/06/20 05:49:35;;;;;;;1999.90;999.90;;;23.40;1.00;;;;;;5120464;28;20553;-80
2021/06/20 05:52:01;;;;;;;1999.90;999.90;;;23.40;1.00;;;;;;5102478;28;20240;-79
2021/06/20 05:54:27;;;;;;;1999.90;999.90;;;23.20;1.00;;;;;;5120430;28;20155;-80
2021/06/20 05:56:52;;;;;;;1999.90;999.90;;;23.20;1.00;;;;;;5120707;28;20254;-80
2021/06/20 05:59:21;;;;;;;1999.90;999.90;;;23.30;1.00;;;;;;5120505;28;20276;-79
2021/06/20 06:01:50;;;;;;;1999.90;999.90;;;23.30;1.00;;;;;;5102261;28;20166;-80
2021/06/20 06:04:15;;;;;;;1999.90;999.90;;;23.30;1.00;;;;;;5120793;28;20404;-79
2021/06/20 06:06:41;;;;;;;1999.90;999.90;;;23.30;1.00;;;;;;5120597;28;20548;-80
2021/06/20 06:09:06;;;;;;;1999.90;999.90;;;23.30;1.00;;;;;;5102620;28;20277;-80
2021/06/20 06:11:32;;;;;;;1999.90;999.90;;;23.30;1.00;;;;;;5120743;28;20638;-80
2021/06/20 06:13:58;;;;;;;1999.90;999.90;;;23.10;1.00;;;;;;5102802;28;20198;-80
2021/06/20 06:16:24;;;;;;;1999.90;999.90;;;23.10;1.00;;;;;;5121273;28;20167;-80
2021/06/20 06:18:49;;;;;;;1999.90;999.90;;;22.90;1.00;;;;;;5121778;28;20183;-80
2021/06/20 06:21:15;;;;;;;1999.90;999.90;;;23.00;1.00;;;;;;5121373;28;20166;-80
2021/06/20 06:23:41;;;;;;;1999.90;999.90;;;23.10;1.00;;;;;;5121389;28;20163;-80
2021/06/20 06:26:07;;;;;;;1999.90;999.90;;;23.10;1.00;;;;;;5122415;28;20191;-80
2021/06/20 06:28:32;;;;;;;1999.90;999.90;;;22.90;1.00;;;;;;5121966;28;20254;-80
2021/06/20 06:31:11;;;;;;;;;;;;;;;;;;;;;
2021/06/20 06:33:37;;;;;;;1999.90;999.90;;;22.90;1.00;;;;;;5120353;28;20257;-80
2021/06/20 06:36:03;;;;;;;1999.90;999.90;;;22.90;1.00;;;;;;5122953;28;20424;-80
2021/06/20 06:38:29;;;;;;;1999.90;999.90;;;22.80;1.00;;;;;;5121845;28;20191;-80
2021/06/20 06:40:55;;;;;;;1999.90;999.90;;;22.90;1.00;;;;;;5122188;28;20196;-79
2021/06/20 06:43:20;;;;;;;1999.90;999.90;;;22.90;1.00;;;;;;5123367;28;20487;-81
2021/06/20 06:45:46;;;;;;;1999.90;999.90;;;22.90;1.00;;;;;;5123061;28;20253;-80
2021/06/20 06:48:12;;;;;;;1999.90;999.90;;;22.80;1.00;;;;;;5122801;28;20185;-79
2021/06/20 06:50:38;;;;;;;1999.90;999.90;;;22.90;1.00;;;;;;5122438;28;20165;-79
2021/06/20 06:53:04;;;;;;;1999.90;999.90;;;22.90;1.00;;;;;;5121960;28;20397;-80
2021/06/20 06:55:30;;;;;;;1999.90;999.90;;;23.00;1.00;;;;;;5122386;28;20568;-80
2021/06/20 06:57:56;;;;;;;1999.90;999.90;;;23.00;1.00;;;;;;5103749;28;20166;-80
2021/06/20 07:00:24;;;;;;;1999.90;999.90;;;23.00;1.00;;;;;;5123968;28;20417;-80
2021/06/20 07:02:52;;;;;;;1999.90;999.90;;;23.10;1.00;;;;;;5123826;28;20217;-80
2021/06/20 07:05:18;;;;;;;1999.90;999.90;;;23.10;1.00;;;;;;5189101;22;20545;-83
2021/06/20 07:07:46;;;;;;;1999.90;999.90;;;23.00;1.00;;;;;;5120214;28;20463;-82
2021/06/20 07:10:12;;;;;;;1999.90;999.90;;;23.00;1.00;;;;;;5102731;28;20236;-82
2021/06/20 07:12:41;;;;;;;1999.90;999.90;;;23.00;1.00;;;;;;5100407;28;20390;-82
2021/06/20 07:15:07;;;;;;;1999.90;999.90;;;23.00;1.00;;;;;;5082776;28;20402;-82
2021/06/20 07:17:34;;;;;;;1999.90;999.90;;;23.00;1.00;;;;;;5100932;28;20397;-83
2021/06/20 07:20:04;;;;;;;1999.90;999.90;;;23.00;1.00;;;;;;5100187;28;20414;-82
2021/06/20 07:22:35;;;;;;;1999.90;999.90;;;23.10;1.00;;;;;;5097781;28;20473;-81
2021/06/20 07:25:02;;;;;;;1999.90;999.90;;;23.20;1.00;;;;;;5097231;28;20437;-81
2021/06/20 07:27:37;;;;;;;1999.90;999.90;;;23.20;1.00;;;;;;5097360;28;20393;-81
2021/06/20 07:30:09;;;;;;;1999.90;999.90;;;23.10;1.00;;;;;;5078495;28;20427;-82
2021/06/20 07:32:39;;;;;;;1999.90;999.90;;;23.20;1.00;;;;;;5098675;28;20398;-82
2021/06/20 07:35:52;;;;;;;1999.90;999.90;;;23.20;1.00;;;;;;5079164;28;20424;-82
2021/06/20 07:39:11;;;;;;;1999.90;999.90;;;23.30;1.00;;;;;;5040990;28;20443;-82
2021/06/20 07:42:04;;;;;;;1999.90;999.90;;;23.40;1.00;;;;;;4996758;28;20880;-81
2021/06/20 07:45:36;;;;;;;;;;;;;;;;;;;;;
2021/06/20 07:51:44;;;;;;;;;;;;;;;;;;;;;
2021/06/20 07:55:14;;;;;;;1999.90;999.90;;;23.50;1.00;;;;;;4994208;28;20943;-81
2021/06/20 07:57:43;;;;;;;1999.90;999.90;;;23.60;1.00;;;;;;4970225;28;20515;-81
2021/06/20 08:00:34;;;;;;;1999.90;999.90;;;23.50;1.00;;;;;;4976455;28;20429;-80
2021/06/20 08:09:32;;;;;;;;;;;;;;;;;;;;;
2021/06/20 08:12:24;;;;;;;1999.90;999.90;;;23.90;99.90;;;;;;4917595;29;20428;-80
2021/06/20 08:15:27;;;;;;;1999.90;999.90;;;24.00;1.00;;;;;;4921578;29;20962;-80
2021/06/20 08:18:10;;;;;;;1999.90;999.90;;;24.20;1.00;;;;;;4933093;29;20803;-79
2021/06/20 08:21:08;;;;;;;1999.90;999.90;;;24.30;99.90;;;;;;4919879;29;20432;-80
2021/06/20 08:24:32;;;;;;;1999.90;999.90;;;24.30;1.00;;;;;;5015304;28;20413;-80
2021/06/20 08:27:28;;;;;;;1999.90;999.90;;;24.20;1.00;;;;;;5059865;28;20465;-80
2021/06/20 08:30:10;;;;;;;1999.90;999.90;;;24.10;1.00;;;;;;5128225;22;20481;-80
2021/06/20 08:32:39;;;;;;;1999.90;999.90;;;24.00;1.00;;;;;;5071410;28;20802;-80
2021/06/20 08:35:17;;;;;;;1999.90;999.90;;;24.00;1.00;;;;;;5077227;28;20428;-79
2021/06/20 08:37:58;;;;;;;1999.90;999.90;;;23.80;1.00;;;;;;5094794;28;20422;-79
2021/06/20 08:40:27;;;;;;;1999.90;999.90;;;23.70;99.90;;;;;;5077404;28;20429;-80
2021/06/20 08:42:58;;;;;;;1999.90;999.90;;;23.70;99.90;;;;;;5094681;28;20768;-80
2021/06/20 08:45:24;;;;;;;1999.90;999.90;;;23.90;99.90;;;;;;5076593;28;20487;-79
2021/06/20 08:48:14;;;;;;;1999.90;999.90;;;24.10;99.90;;;;;;5076714;28;20441;-79
2021/06/20 08:50:42;;;;;;;1999.90;999.90;;;24.10;99.90;;;;;;5094336;28;20442;-79
2021/06/20 08:53:27;;;;;;;1999.90;999.90;;;24.20;1.00;;;;;;5097431;28;20413;-79
2021/06/20 08:56:04;;;;;;;1999.90;999.90;;;24.20;99.90;;;;;;5081096;28;20405;-79
2021/06/20 09:02:27;;;;;;;1999.90;999.90;;;24.20;99.90;;;;;;5016854;28;20496;-80
2021/06/20 09:05:15;;;;;;;1999.90;999.90;;;24.40;99.90;;;;;;5080353;28;20500;-80
2021/06/20 09:08:16;;;;;;;1999.90;999.90;;;24.50;1.00;;;;;;5080714;28;20415;-80
2021/06/20 09:14:34;;;;;;;1999.90;999.90;;;24.60;1.00;;;;;;5016469;28;20933;-79
2021/06/20 09:17:28;;;;;;;1999.90;999.90;;;24.70;99.90;;;;;;5004299;28;20822;-80
2021/06/20 09:20:25;;;;;;;1999.90;999.90;;;25.00;1.00;;;;;;5098221;28;20414;-79
2021/06/20 09:23:18;;;;;;;1999.90;999.90;;;25.10;99.90;;;;;;5034973;28;20515;-79
2021/06/20 09:26:12;;;;;;;1999.90;999.90;;;25.00;6.60;;;;;;5045867;28;20532;-79
2021/06/20 09:29:25;;;;;;;1999.90;999.90;;;25.00;99.90;;;;;;5080847;28;20437;-79
2021/06/20 09:32:01;;;;;;;1999.90;999.90;;;25.10;99.90;;;;;;5048156;28;20415;-79
2021/06/20 09:34:44;;;;;;;1999.90;999.90;;;25.30;1.00;;;;;;5079587;28;20463;-79
2021/06/20 09:37:36;;;;;;;1999.90;999.90;;;25.40;1.00;;;;;;5098709;28;20413;-79
2021/06/20 09:40:39;;;;;;;1999.90;999.90;;;25.50;1.00;;;;;;4979990;28;20946;-79
2021/06/20 09:43:19;;;;;;;1999.90;999.90;;;25.50;99.90;;;;;;4979870;28;20409;-79
2021/06/20 09:45:53;;;;;;;1999.90;999.90;;;25.50;1.00;;;;;;4980789;28;20452;-80
2021/06/20 09:51:53;;;;;;;1999.90;999.90;;;25.40;1.00;;;;;;4996788;28;20446;-79
2021/06/20 09:54:44;;;;;;;1999.90;999.90;;;25.50;1.00;;;;;;4977578;28;20431;-79
2021/06/20 10:01:07;;;;;;;1999.90;999.90;;;25.30;1.00;;;;;;5083013;28;20399;-79
2021/06/20 10:03:45;;;;;;;1999.90;999.90;;;25.50;99.90;;;;;;5097649;28;20384;-79
2021/06/20 10:06:15;;;;;;;1999.90;999.90;;;25.60;99.90;;;;;;5079985;28;20444;-79
2021/06/20 10:11:53;;;;;;;1999.90;999.90;;;25.90;99.90;;;;;;5066145;28;20419;-79
2021/06/20 10:14:35;;;;;;;1999.90;999.90;;;26.20;1.00;;;;;;5079591;28;20414;-79
2021/06/20 10:18:00;;;;;;;;;;;;;;;;;;;;;
2021/06/20 10:20:56;;;;;;;1999.90;999.90;;;26.60;1.00;;;;;;5097281;28;20427;-79
2021/06/20 10:23:37;;;;;;;1999.90;999.90;;;26.60;99.30;;;;;;5079700;28;20915;-79
2021/06/20 10:27:00;;;;;;;1999.90;999.90;;;26.40;1.00;;;;;;5078968;28;20444;-79
2021/06/20 10:29:55;;;;;;;1999.90;999.90;;;26.40;99.90;;;;;;5038761;28;20440;-79
2021/06/20 10:32:44;;;;;;;1999.90;999.90;;;26.70;1.00;;;;;;5085197;28;20436;-79
2021/06/20 10:36:13;;;;;;;1999.90;999.90;;;27.00;99.90;;;;;;5078482;28;20436;-79
2021/06/20 10:39:07;;;;;;;1999.90;999.90;;;27.30;1.00;;;;;;4994695;28;20509;-79
2021/06/20 10:41:38;;;;;;;1999.90;999.90;;;27.90;7.50;;;;;;5096385;28;20406;-79
2021/06/20 10:44:48;;;;;;;1999.90;999.90;;;28.40;7.00;;;;;;5078121;28;20943;-79
2021/06/20 10:50:54;;;;;;;1999.90;999.90;;;28.90;24.30;;;;;;5095445;22;20488;-79
2021/06/20 10:53:48;;;;;;;1999.90;999.90;;;29.20;24.50;;;;;;5096768;28;20913;-80
2021/06/20 10:57:11;;;;;;;1999.90;999.90;;;29.50;17.20;;;;;;5097227;28;20857;-79
2021/06/20 11:00:24;;;;;;;1999.90;999.90;;;29.50;14.60;;;;;;5076822;28;20437;-79
2021/06/20 11:03:25;;;;;;;1999.90;999.90;;;29.20;16.70;;;;;;5078221;28;20519;-79
2021/06/20 11:06:40;;;;;;;1999.90;999.90;;;29.00;10.40;;;;;;5078328;28;20440;-79
2021/06/20 11:12:57;;;;;;;1999.90;999.90;;;28.50;16.20;;;;;;5057092;28;20750;-79
2021/06/20 11:18:45;;;;;;;1999.90;999.90;;;28.40;16.50;;;;;;5022622;28;20476;-79
2021/06/20 11:21:39;;;;;;;1999.90;999.90;;;28.60;14.70;;;;;;5077558;28;20413;-79
2021/06/20 11:24:18;;;;;;;1999.90;999.90;;;28.60;19.40;;;;;;4977761;28;20421;-79
2021/06/20 11:27:04;;;;;;;1999.90;999.90;;;28.60;14.70;;;;;;5069035;28;20452;-79
2021/06/20 11:30:24;;;;;;;1999.90;999.90;;;28.50;13.20;;;;;;5076600;28;20433;-79
2021/06/20 11:33:13;;;;;;;1999.90;999.90;;;28.10;17.20;;;;;;5078369;28;20404;-79
2021/06/20 11:35:55;;;;;;;1999.90;999.90;;;27.80;19.80;;;;;;5078175;28;20397;-79
2021/06/20 11:38:52;;;;;;;1999.90;999.90;;;27.60;22.90;;;;;;5076673;28;20412;-79
2021/06/20 11:41:25;;;;;;;1999.90;999.90;;;27.70;21.80;;;;;;5078227;28;20394;-79
2021/06/20 11:44:16;;;;;;;1999.90;999.90;;;27.90;21.60;;;;;;5078166;28;20772;-79
2021/06/20 11:46:47;;;;;;;1999.90;999.90;;;28.00;16.90;;;;;;5077439;28;20478;-79
2021/06/20 11:49:19;;;;;;;1999.90;999.90;;;27.90;21.70;;;;;;5077518;28;20474;-79
2021/06/20 11:52:18;;;;;;;1999.90;999.90;;;28.00;19.30;;;;;;5077195;28;20406;-78
2021/06/20 11:55:16;;;;;;;1999.90;999.90;;;28.30;17.60;;;;;;5070589;28;20398;-78
2021/06/20 11:57:48;;;;;;;1999.90;999.90;;;28.60;14.90;;;;;;5095461;28;20389;-78
2021/06/20 12:00:16;;;;;;;1999.90;999.90;;;28.60;13.10;;;;;;5095817;28;20421;-79
2021/06/20 12:06:16;;;;;;;1999.90;999.90;;;28.70;9.30;;;;;;5091129;28;20453;-79
2021/06/20 12:08:47;;;;;;;1999.90;999.90;;;28.60;12.00;;;;;;5077448;28;20981;-79
2021/06/20 12:11:49;;;;;;;1999.90;999.90;;;28.60;12.80;;;;;;5095265;28;20757;-79
2021/06/20 12:17:33;;;;;;;1999.90;999.90;;;28.60;12.70;;;;;;5062002;28;20474;-79
2021/06/20 12:20:11;;;;;;;1999.90;999.90;;;29.10;10.70;;;;;;5077122;28;20887;-79
2021/06/20 12:23:01;;;;;;;1999.90;999.90;;;29.40;13.40;;;;;;5076875;28;20405;-79
2021/06/20 12:28:55;;;;;;;1999.90;999.90;;;29.90;6.30;;;;;;5099430;28;20827;-79
2021/06/20 12:31:30;;;;;;;1999.90;999.90;;;29.80;6.80;;;;;;5079410;28;20425;-79
2021/06/20 12:37:08;;;;;;;1999.90;999.90;;;29.60;5.90;;;;;;5061081;28;20401;-79
2021/06/20 12:40:03;;;;;;;1999.90;999.90;;;29.30;5.30;;;;;;5099705;28;20421;-79
2021/06/20 12:42:48;;;;;;;1999.90;999.90;;;29.10;7.60;;;;;;5099062;28;20761;-79
2021/06/20 12:45:21;;;;;;;1999.90;999.90;;;29.20;9.10;;;;;;5081334;28;20449;-78
2021/06/20 12:48:16;;;;;;;1999.90;999.90;;;29.20;10.60;;;;;;5081530;28;20406;-79
2021/06/20 12:51:07;;;;;;;1999.90;999.90;;;29.40;8.40;;;;;;5076851;28;20472;-79
2021/06/20 12:54:22;;;;;;;1999.90;999.90;;;29.60;3.90;;;;;;5080954;28;20484;-79
2021/06/20 12:57:05;;;;;;;1999.90;999.90;;;29.90;2.20;;;;;;5080730;28;20814;-79
2021/06/20 13:00:09;;;;;;;1999.90;999.90;;;29.80;5.40;;;;;;5080648;28;20454;-79
2021/06/20 13:02:40;;;;;;;1999.90;999.90;;;29.60;4.00;;;;;;5059222;28;20768;-79
2021/06/20 13:05:07;;;;;;;1999.90;999.90;;;29.40;7.30;;;;;;5133806;22;20527;-80
2021/06/20 13:07:49;;;;;;;1999.90;999.90;;;29.50;5.50;;;;;;5041360;28;20447;-80
2021/06/20 13:10:36;;;;;;;1999.90;999.90;;;29.50;4.80;;;;;;5041864;28;20411;-80
2021/06/20 13:13:05;;;;;;;1999.90;999.90;;;29.30;6.80;;;;;;5041227;28;20915;-80
2021/06/20 13:15:34;;;;;;;1999.90;999.90;;;29.30;7.10;;;;;;5041251;28;20719;-80
2021/06/20 13:18:05;;;;;;;1999.90;999.90;;;29.30;7.70;;;;;;5040572;28;20491;-80
2021/06/20 13:20:34;;;;;;;1999.90;999.90;;;29.50;7.40;;;;;;5041625;28;20431;-80
2021/06/20 13:23:02;;;;;;;1999.90;999.90;;;29.70;8.10;;;;;;5040481;28;20412;-80
2021/06/20 13:25:29;;;;;;;1999.90;999.90;;;29.80;5.80;;;;;;5041572;28;20883;-80
2021/06/20 13:27:55;;;;;;;1999.90;999.90;;;29.90;3.20;;;;;;5041597;28;20408;-80
2021/06/20 13:30:27;;;;;;;1999.90;999.90;;;29.90;9.30;;;;;;5041839;28;20412;-80
2021/06/20 13:32:54;;;;;;;1999.90;999.90;;;30.00;5.90;;;;;;5041431;28;20415;-80
2021/06/20 13:35:42;;;;;;;1999.90;999.90;;;30.00;5.30;;;;;;5041629;28;20479;-80
2021/06/20 13:38:13;;;;;;;1999.90;999.90;;;30.10;4.70;;;;;;5039797;28;20415;-80
2021/06/20 13:40:39;;;;;;;1999.90;999.90;;;30.30;5.10;;;;;;5041329;28;20456;-80
2021/06/20 13:43:11;;;;;;;1999.90;999.90;;;30.30;5.60;;;;;;5041133;28;20754;-80